sensor_id;sensor_type;location;lat;lon;timestamp;P1;durP1;ratioP1;P2;durP2;ratioP2
15841;SDS011;8021;48.022;11.812;2023-05-15T00:02:06;0.30;;;0.30;;
15841;SDS011;8021;48.022;11.812;2023-05-15T00:04:33;0.30;;;0.30;;
15841;SDS011;8021;48.022;11.812;2023-05-15T00:07:01;0.30;;;0.30;;
15841;SDS011;8021;48.022;11.812;2023-05-15T00:09:28;0.30;;;0.30;;
15841;SDS011;8021;48.022;11.812;2023-05-15T00:11:57;0.30;;;0.30;;
15841;SDS011;8021;48.022;11.812;2023-05-15T00:14:25;0.30;;;0.30;;
15841;SDS011;8021;48.022;11.812;2023-05-15T00:16:53;0.30;;;0.30;;
15841;SDS011;8021;48.022;11.812;2023-05-15T00:19:20;0.38;;;0.38;;
15841;SDS011;8021;48.022;11.812;2023-05-15T00:21:48;0.30;;;0.30;;
15841;SDS011;8021;48.022;11.812;2023-05-15T00:24:15;0.32;;;0.32;;
15841;SDS011;8021;48.022;11.812;2023-05-15T00:26:44;0.30;;;0.30;;
15841;SDS011;8021;48.022;11.812;2023-05-15T00:29:13;0.30;;;0.30;;
15841;SDS011;8021;48.022;11.812;2023-05-15T00:31:40;0.40;;;0.40;;
15841;SDS011;8021;48.022;11.812;2023-05-15T00:34:08;0.30;;;0.20;;
15841;SDS011;8021;48.022;11.812;2023-05-15T00:36:36;0.30;;;0.30;;
15841;SDS011;8021;48.022;11.812;2023-05-15T00:39:03;0.30;;;0.30;;
15841;SDS011;8021;48.022;11.812;2023-05-15T00:41:30;0.32;;;0.32;;
15841;SDS011;8021;48.022;11.812;2023-05-15T00:43:59;0.30;;;0.30;;
15841;SDS011;8021;48.022;11.812;2023-05-15T00:46:30;0.30;;;0.30;;
15841;SDS011;8021;48.022;11.812;2023-05-15T00:48:58;0.30;;;0.30;;
15841;SDS011;8021;48.022;11.812;2023-05-15T00:51:26;0.40;;;0.40;;
15841;SDS011;8021;48.022;11.812;2023-05-15T00:53:54;0.40;;;0.40;;
15841;SDS011;8021;48.022;11.812;2023-05-15T00:56:22;0.32;;;0.32;;
15841;SDS011;8021;48.022;11.812;2023-05-15T00:58:50;0.40;;;0.40;;
15841;SDS011;8021;48.022;11.812;2023-05-15T01:01:18;0.40;;;0.40;;
15841;SDS011;8021;48.022;11.812;2023-05-15T01:03:47;0.30;;;0.30;;
15841;SDS011;8021;48.022;11.812;2023-05-15T01:06:15;0.30;;;0.20;;
15841;SDS011;8021;48.022;11.812;2023-05-15T01:08:44;0.30;;;0.30;;
15841;SDS011;8021;48.022;11.812;2023-05-15T01:11:12;0.30;;;0.30;;
15841;SDS011;8021;48.022;11.812;2023-05-15T01:13:40;0.30;;;0.28;;
15841;SDS011;8021;48.022;11.812;2023-05-15T01:16:08;0.30;;;0.30;;
15841;SDS011;8021;48.022;11.812;2023-05-15T01:18:36;0.30;;;0.30;;
15841;SDS011;8021;48.022;11.812;2023-05-15T01:23:53;0.40;;;0.40;;
15841;SDS011;8021;48.022;11.812;2023-05-15T01:26:34;0.40;;;0.40;;
15841;SDS011;8021;48.022;11.812;2023-05-15T01:29:10;0.32;;;0.32;;
15841;SDS011;8021;48.022;11.812;2023-05-15T01:31:40;0.30;;;0.30;;
15841;SDS011;8021;48.022;11.812;2023-05-15T01:34:08;0.30;;;0.30;;
15841;SDS011;8021;48.022;11.812;2023-05-15T01:36:37;0.30;;;0.30;;
15841;SDS011;8021;48.022;11.812;2023-05-15T01:39:07;0.30;;;0.30;;
15841;SDS011;8021;48.022;11.812;2023-05-15T01:41:35;0.30;;;0.30;;
15841;SDS011;8021;48.022;11.812;2023-05-15T01:44:10;0.30;;;0.30;;
15841;SDS011;8021;48.022;11.812;2023-05-15T01:46:41;0.30;;;0.30;;
15841;SDS011;8021;48.022;11.812;2023-05-15T01:49:11;0.30;;;0.30;;
15841;SDS011;8021;48.022;11.812;2023-05-15T01:51:39;0.32;;;0.32;;
15841;SDS011;8021;48.022;11.812;2023-05-15T01:54:08;0.30;;;0.30;;
15841;SDS011;8021;48.022;11.812;2023-05-15T01:56:36;0.30;;;0.30;;
15841;SDS011;8021;48.022;11.812;2023-05-15T01:59:05;0.40;;;0.40;;
15841;SDS011;8021;48.022;11.812;2023-05-15T02:01:35;0.30;;;0.30;;
15841;SDS011;8021;48.022;11.812;2023-05-15T02:04:03;0.30;;;0.30;;
15841;SDS011;8021;48.022;11.812;2023-05-15T02:06:31;0.30;;;0.30;;
15841;SDS011;8021;48.022;11.812;2023-05-15T02:09:00;0.30;;;0.30;;
15841;SDS011;8021;48.022;11.812;2023-05-15T02:11:29;0.30;;;0.30;;
15841;SDS011;8021;48.022;11.812;2023-05-15T02:13:56;0.30;;;0.30;;
15841;SDS011;8021;48.022;11.812;2023-05-15T02:16:25;0.30;;;0.30;;
15841;SDS011;8021;48.022;11.812;2023-05-15T02:18:54;0.30;;;0.30;;
15841;SDS011;8021;48.022;11.812;2023-05-15T02:21:21;0.40;;;0.40;;
15841;SDS011;8021;48.022;11.812;2023-05-15T02:23:49;0.30;;;0.30;;
15841;SDS011;8021;48.022;11.812;2023-05-15T02:26:20;0.30;;;0.30;;
15841;SDS011;8021;48.022;11.812;2023-05-15T02:28:53;0.30;;;0.30;;
15841;SDS011;8021;48.022;11.812;2023-05-15T02:31:25;0.30;;;0.30;;
15841;SDS011;8021;48.022;11.812;2023-05-15T02:34:00;0.38;;;0.38;;
15841;SDS011;8021;48.022;11.812;2023-05-15T02:36:31;0.30;;;0.20;;
15841;SDS011;8021;48.022;11.812;2023-05-15T02:38:59;0.40;;;0.40;;
15841;SDS011;8021;48.022;11.812;2023-05-15T02:41:27;0.32;;;0.32;;
15841;SDS011;8021;48.022;11.812;2023-05-15T02:43:57;0.30;;;0.30;;
15841;SDS011;8021;48.022;11.812;2023-05-15T02:46:26;0.30;;;0.30;;
15841;SDS011;8021;48.022;11.812;2023-05-15T02:48:54;0.40;;;0.40;;
15841;SDS011;8021;48.022;11.812;2023-05-15T02:51:23;0.30;;;0.30;;
15841;SDS011;8021;48.022;11.812;2023-05-15T02:53:50;0.40;;;0.40;;
15841;SDS011;8021;48.022;11.812;2023-05-15T02:56:18;0.30;;;0.30;;
15841;SDS011;8021;48.022;11.812;2023-05-15T02:58:45;0.30;;;0.30;;
15841;SDS011;8021;48.022;11.812;2023-05-15T03:01:14;0.30;;;0.30;;
15841;SDS011;8021;48.022;11.812;2023-05-15T03:03:42;0.30;;;0.30;;
15841;SDS011;8021;48.022;11.812;2023-05-15T03:06:10;0.30;;;0.30;;
15841;SDS011;8021;48.022;11.812;2023-05-15T03:08:38;0.30;;;0.30;;
15841;SDS011;8021;48.022;11.812;2023-05-15T03:11:06;0.30;;;0.30;;
15841;SDS011;8021;48.022;11.812;2023-05-15T03:13:33;0.30;;;0.30;;
15841;SDS011;8021;48.022;11.812;2023-05-15T03:16:01;0.40;;;0.40;;
15841;SDS011;8021;48.022;11.812;2023-05-15T03:18:28;0.38;;;0.38;;
15841;SDS011;8021;48.022;11.812;2023-05-15T03:20:56;0.30;;;0.30;;
15841;SDS011;8021;48.022;11.812;2023-05-15T03:23:23;0.30;;;0.30;;
15841;SDS011;8021;48.022;11.812;2023-05-15T03:25:52;0.40;;;0.40;;
15841;SDS011;8021;48.022;11.812;2023-05-15T03:28:19;0.40;;;0.40;;
15841;SDS011;8021;48.022;11.812;2023-05-15T03:30:47;0.30;;;0.30;;
15841;SDS011;8021;48.022;11.812;2023-05-15T03:33:14;0.30;;;0.30;;
15841;SDS011;8021;48.022;11.812;2023-05-15T03:35:42;0.32;;;0.32;;
15841;SDS011;8021;48.022;11.812;2023-05-15T03:38:09;0.30;;;0.30;;
15841;SDS011;8021;48.022;11.812;2023-05-15T03:40:38;0.30;;;0.30;;
15841;SDS011;8021;48.022;11.812;2023-05-15T03:43:07;0.30;;;0.30;;
15841;SDS011;8021;48.022;11.812;2023-05-15T03:45:34;0.30;;;0.30;;
15841;SDS011;8021;48.022;11.812;2023-05-15T03:48:02;0.30;;;0.30;;
15841;SDS011;8021;48.022;11.812;2023-05-15T03:50:30;0.40;;;0.40;;
15841;SDS011;8021;48.022;11.812;2023-05-15T03:52:58;0.30;;;0.30;;
15841;SDS011;8021;48.022;11.812;2023-05-15T03:55:25;0.30;;;0.30;;
15841;SDS011;8021;48.022;11.812;2023-05-15T03:57:53;0.30;;;0.30;;
15841;SDS011;8021;48.022;11.812;2023-05-15T04:00:22;0.30;;;0.30;;
15841;SDS011;8021;48.022;11.812;2023-05-15T04:02:50;0.30;;;0.30;;
15841;SDS011;8021;48.022;11.812;2023-05-15T04:05:18;0.30;;;0.30;;
15841;SDS011;8021;48.022;11.812;2023-05-15T04:07:47;0.30;;;0.30;;
15841;SDS011;8021;48.022;11.812;2023-05-15T04:10:14;0.40;;;0.40;;
15841;SDS011;8021;48.022;11.812;2023-05-15T04:12:41;0.30;;;0.30;;
15841;SDS011;8021;48.022;11.812;2023-05-15T04:15:12;0.40;;;0.40;;
15841;SDS011;8021;48.022;11.812;2023-05-15T04:17:41;0.30;;;0.30;;
15841;SDS011;8021;48.022;11.812;2023-05-15T04:20:09;0.30;;;0.30;;
15841;SDS011;8021;48.022;11.812;2023-05-15T04:22:38;0.30;;;0.30;;
15841;SDS011;8021;48.022;11.812;2023-05-15T04:25:05;0.40;;;0.40;;
15841;SDS011;8021;48.022;11.812;2023-05-15T04:27:34;0.30;;;0.30;;
15841;SDS011;8021;48.022;11.812;2023-05-15T04:30:02;0.30;;;0.30;;
15841;SDS011;8021;48.022;11.812;2023-05-15T04:32:30;0.40;;;0.40;;
15841;SDS011;8021;48.022;11.812;2023-05-15T04:35:00;0.30;;;0.30;;
15841;SDS011;8021;48.022;11.812;2023-05-15T04:37:27;0.30;;;0.30;;
15841;SDS011;8021;48.022;11.812;2023-05-15T04:39:55;0.30;;;0.30;;
15841;SDS011;8021;48.022;11.812;2023-05-15T04:42:22;0.30;;;0.30;;
15841;SDS011;8021;48.022;11.812;2023-05-15T04:44:50;0.30;;;0.30;;
15841;SDS011;8021;48.022;11.812;2023-05-15T04:47:17;0.30;;;0.30;;
15841;SDS011;8021;48.022;11.812;2023-05-15T04:49:45;0.35;;;0.35;;
15841;SDS011;8021;48.022;11.812;2023-05-15T04:52:14;0.20;;;0.20;;
15841;SDS011;8021;48.022;11.812;2023-05-15T04:54:42;0.30;;;0.30;;
15841;SDS011;8021;48.022;11.812;2023-05-15T04:57:09;0.38;;;0.38;;
15841;SDS011;8021;48.022;11.812;2023-05-15T04:59:37;0.30;;;0.30;;
15841;SDS011;8021;48.022;11.812;2023-05-15T05:02:04;0.30;;;0.30;;
15841;SDS011;8021;48.022;11.812;2023-05-15T05:04:32;0.30;;;0.30;;
15841;SDS011;8021;48.022;11.812;2023-05-15T05:06:59;0.30;;;0.30;;
15841;SDS011;8021;48.022;11.812;2023-05-15T05:09:30;0.40;;;0.40;;
15841;SDS011;8021;48.022;11.812;2023-05-15T05:11:58;0.30;;;0.30;;
15841;SDS011;8021;48.022;11.812;2023-05-15T05:14:26;0.32;;;0.32;;
15841;SDS011;8021;48.022;11.812;2023-05-15T05:16:53;0.30;;;0.30;;
15841;SDS011;8021;48.022;11.812;2023-05-15T05:19:21;0.30;;;0.30;;
15841;SDS011;8021;48.022;11.812;2023-05-15T05:21:48;0.30;;;0.30;;
15841;SDS011;8021;48.022;11.812;2023-05-15T05:24:16;0.30;;;0.30;;
15841;SDS011;8021;48.022;11.812;2023-05-15T05:26:45;0.30;;;0.30;;
15841;SDS011;8021;48.022;11.812;2023-05-15T05:29:12;0.30;;;0.30;;
15841;SDS011;8021;48.022;11.812;2023-05-15T05:31:40;0.30;;;0.30;;
15841;SDS011;8021;48.022;11.812;2023-05-15T05:34:07;0.30;;;0.30;;
15841;SDS011;8021;48.022;11.812;2023-05-15T05:36:35;0.30;;;0.30;;
15841;SDS011;8021;48.022;11.812;2023-05-15T05:39:03;0.30;;;0.30;;
15841;SDS011;8021;48.022;11.812;2023-05-15T05:41:30;0.30;;;0.30;;
15841;SDS011;8021;48.022;11.812;2023-05-15T05:43:59;0.30;;;0.30;;
15841;SDS011;8021;48.022;11.812;2023-05-15T05:46:27;0.38;;;0.38;;
15841;SDS011;8021;48.022;11.812;2023-05-15T05:48:54;0.30;;;0.20;;
15841;SDS011;8021;48.022;11.812;2023-05-15T05:51:22;0.30;;;0.30;;
15841;SDS011;8021;48.022;11.812;2023-05-15T05:53:49;0.30;;;0.30;;
15841;SDS011;8021;48.022;11.812;2023-05-15T05:56:17;0.30;;;0.30;;
15841;SDS011;8021;48.022;11.812;2023-05-15T05:58:44;0.30;;;0.30;;
15841;SDS011;8021;48.022;11.812;2023-05-15T06:01:13;0.30;;;0.30;;
15841;SDS011;8021;48.022;11.812;2023-05-15T06:03:41;0.30;;;0.30;;
15841;SDS011;8021;48.022;11.812;2023-05-15T06:06:10;0.30;;;0.30;;
15841;SDS011;8021;48.022;11.812;2023-05-15T06:08:37;0.30;;;0.30;;
15841;SDS011;8021;48.022;11.812;2023-05-15T06:11:05;0.30;;;0.30;;
15841;SDS011;8021;48.022;11.812;2023-05-15T06:13:32;0.30;;;0.30;;
15841;SDS011;8021;48.022;11.812;2023-05-15T06:16:00;0.30;;;0.30;;
15841;SDS011;8021;48.022;11.812;2023-05-15T06:18:29;0.30;;;0.30;;
15841;SDS011;8021;48.022;11.812;2023-05-15T06:20:56;0.30;;;0.30;;
15841;SDS011;8021;48.022;11.812;2023-05-15T06:23:25;0.30;;;0.30;;
15841;SDS011;8021;48.022;11.812;2023-05-15T06:25:53;0.30;;;0.30;;
15841;SDS011;8021;48.022;11.812;2023-05-15T06:28:20;0.30;;;0.30;;
15841;SDS011;8021;48.022;11.812;2023-05-15T06:30:48;0.30;;;0.30;;
15841;SDS011;8021;48.022;11.812;2023-05-15T06:33:15;0.30;;;0.20;;
15841;SDS011;8021;48.022;11.812;2023-05-15T06:35:44;0.30;;;0.30;;
15841;SDS011;8021;48.022;11.812;2023-05-15T06:38:11;0.30;;;0.28;;
15841;SDS011;8021;48.022;11.812;2023-05-15T06:40:39;0.30;;;0.30;;
15841;SDS011;8021;48.022;11.812;2023-05-15T06:43:06;0.30;;;0.30;;
15841;SDS011;8021;48.022;11.812;2023-05-15T06:45:34;0.30;;;0.30;;
15841;SDS011;8021;48.022;11.812;2023-05-15T06:48:01;0.30;;;0.30;;
15841;SDS011;8021;48.022;11.812;2023-05-15T06:50:29;0.30;;;0.30;;
15841;SDS011;8021;48.022;11.812;2023-05-15T06:52:58;0.30;;;0.30;;
15841;SDS011;8021;48.022;11.812;2023-05-15T06:55:26;0.30;;;0.30;;
15841;SDS011;8021;48.022;11.812;2023-05-15T06:57:54;0.30;;;0.20;;
15841;SDS011;8021;48.022;11.812;2023-05-15T07:00:21;0.20;;;0.20;;
15841;SDS011;8021;48.022;11.812;2023-05-15T07:02:49;0.30;;;0.30;;
15841;SDS011;8021;48.022;11.812;2023-05-15T07:05:16;0.30;;;0.30;;
15841;SDS011;8021;48.022;11.812;2023-05-15T07:07:44;0.30;;;0.30;;
15841;SDS011;8021;48.022;11.812;2023-05-15T07:10:13;0.30;;;0.30;;
15841;SDS011;8021;48.022;11.812;2023-05-15T07:12:40;0.30;;;0.20;;
15841;SDS011;8021;48.022;11.812;2023-05-15T07:15:08;0.30;;;0.30;;
15841;SDS011;8021;48.022;11.812;2023-05-15T07:17:36;0.30;;;0.30;;
15841;SDS011;8021;48.022;11.812;2023-05-15T07:20:04;0.20;;;0.20;;
15841;SDS011;8021;48.022;11.812;2023-05-15T07:22:32;0.30;;;0.30;;
15841;SDS011;8021;48.022;11.812;2023-05-15T07:25:10;0.20;;;0.20;;
15841;SDS011;8021;48.022;11.812;2023-05-15T07:27:41;0.20;;;0.20;;
15841;SDS011;8021;48.022;11.812;2023-05-15T07:30:08;0.20;;;0.20;;
15841;SDS011;8021;48.022;11.812;2023-05-15T07:32:36;0.20;;;0.20;;
15841;SDS011;8021;48.022;11.812;2023-05-15T07:35:04;0.20;;;0.20;;
15841;SDS011;8021;48.022;11.812;2023-05-15T07:37:31;0.20;;;0.20;;
15841;SDS011;8021;48.022;11.812;2023-05-15T07:39:59;0.20;;;0.20;;
15841;SDS011;8021;48.022;11.812;2023-05-15T07:42:27;0.20;;;0.20;;
15841;SDS011;8021;48.022;11.812;2023-05-15T07:44:55;0.30;;;0.20;;
15841;SDS011;8021;48.022;11.812;2023-05-15T07:47:23;0.20;;;0.20;;
15841;SDS011;8021;48.022;11.812;2023-05-15T07:49:51;0.20;;;0.20;;
15841;SDS011;8021;48.022;11.812;2023-05-15T07:52:19;0.20;;;0.20;;
15841;SDS011;8021;48.022;11.812;2023-05-15T07:54:46;0.20;;;0.20;;
15841;SDS011;8021;48.022;11.812;2023-05-15T07:57:14;0.20;;;0.20;;
15841;SDS011;8021;48.022;11.812;2023-05-15T07:59:41;0.20;;;0.20;;
15841;SDS011;8021;48.022;11.812;2023-05-15T08:02:10;0.20;;;0.20;;
15841;SDS011;8021;48.022;11.812;2023-05-15T08:04:38;0.20;;;0.20;;
15841;SDS011;8021;48.022;11.812;2023-05-15T08:07:06;0.25;;;0.20;;
15841;SDS011;8021;48.022;11.812;2023-05-15T08:09:33;0.20;;;0.20;;
15841;SDS011;8021;48.022;11.812;2023-05-15T08:12:13;0.20;;;0.15;;
15841;SDS011;8021;48.022;11.812;2023-05-15T08:14:42;0.20;;;0.20;;
15841;SDS011;8021;48.022;11.812;2023-05-15T08:17:11;0.20;;;0.13;;
15841;SDS011;8021;48.022;11.812;2023-05-15T08:19:39;0.20;;;0.20;;
15841;SDS011;8021;48.022;11.812;2023-05-15T08:22:06;0.20;;;0.20;;
15841;SDS011;8021;48.022;11.812;2023-05-15T08:24:34;0.17;;;0.13;;
15841;SDS011;8021;48.022;11.812;2023-05-15T08:27:01;0.20;;;0.20;;
15841;SDS011;8021;48.022;11.812;2023-05-15T08:29:30;0.28;;;0.20;;
15841;SDS011;8021;48.022;11.812;2023-05-15T08:31:58;0.20;;;0.13;;
15841;SDS011;8021;48.022;11.812;2023-05-15T08:34:28;0.20;;;0.10;;
15841;SDS011;8021;48.022;11.812;2023-05-15T08:36:57;0.20;;;0.10;;
15841;SDS011;8021;48.022;11.812;2023-05-15T08:39:24;0.20;;;0.10;;
15841;SDS011;8021;48.022;11.812;2023-05-15T08:41:55;0.13;;;0.13;;
15841;SDS011;8021;48.022;11.812;2023-05-15T08:44:24;0.20;;;0.10;;
15841;SDS011;8021;48.022;11.812;2023-05-15T08:46:52;0.20;;;0.20;;
15841;SDS011;8021;48.022;11.812;2023-05-15T08:49:22;0.20;;;0.10;;
15841;SDS011;8021;48.022;11.812;2023-05-15T08:51:54;0.10;;;0.10;;
15841;SDS011;8021;48.022;11.812;2023-05-15T08:54:22;0.17;;;0.10;;
15841;SDS011;8021;48.022;11.812;2023-05-15T08:56:50;0.20;;;0.20;;
15841;SDS011;8021;48.022;11.812;2023-05-15T08:59:18;0.10;;;0.10;;
15841;SDS011;8021;48.022;11.812;2023-05-15T09:01:46;0.10;;;0.10;;
15841;SDS011;8021;48.022;11.812;2023-05-15T09:04:13;0.08;;;0.08;;
15841;SDS011;8021;48.022;11.812;2023-05-15T09:06:41;0.10;;;0.10;;
15841;SDS011;8021;48.022;11.812;2023-05-15T09:09:11;0.03;;;0.03;;
15841;SDS011;8021;48.022;11.812;2023-05-15T09:11:40;0.10;;;0.10;;
15841;SDS011;8021;48.022;11.812;2023-05-15T09:14:09;0.00;;;0.00;;
15841;SDS011;8021;48.022;11.812;2023-05-15T09:16:37;0.00;;;0.00;;
15841;SDS011;8021;48.022;11.812;2023-05-15T09:19:05;0.10;;;0.10;;
15841;SDS011;8021;48.022;11.812;2023-05-15T09:21:33;0.10;;;0.10;;
15841;SDS011;8021;48.022;11.812;2023-05-15T09:27:01;0.10;;;0.10;;
15841;SDS011;8021;48.022;11.812;2023-05-15T09:29:29;0.10;;;0.10;;
15841;SDS011;8021;48.022;11.812;2023-05-15T09:32:01;0.10;;;0.10;;
15841;SDS011;8021;48.022;11.812;2023-05-15T09:34:29;0.10;;;0.10;;
15841;SDS011;8021;48.022;11.812;2023-05-15T09:36:56;0.10;;;0.10;;
15841;SDS011;8021;48.022;11.812;2023-05-15T09:39:24;0.10;;;0.10;;
15841;SDS011;8021;48.022;11.812;2023-05-15T09:41:52;0.10;;;0.10;;
15841;SDS011;8021;48.022;11.812;2023-05-15T09:44:23;0.20;;;0.15;;
15841;SDS011;8021;48.022;11.812;2023-05-15T09:46:51;0.15;;;0.15;;
15841;SDS011;8021;48.022;11.812;2023-05-15T09:49:18;0.10;;;0.10;;
15841;SDS011;8021;48.022;11.812;2023-05-15T09:51:46;0.10;;;0.10;;
15841;SDS011;8021;48.022;11.812;2023-05-15T09:54:16;0.10;;;0.10;;
15841;SDS011;8021;48.022;11.812;2023-05-15T09:56:44;0.10;;;0.10;;
15841;SDS011;8021;48.022;11.812;2023-05-15T09:59:12;0.10;;;0.10;;
15841;SDS011;8021;48.022;11.812;2023-05-15T10:01:45;0.10;;;0.10;;
15841;SDS011;8021;48.022;11.812;2023-05-15T10:04:13;0.10;;;0.10;;
15841;SDS011;8021;48.022;11.812;2023-05-15T10:06:41;0.10;;;0.10;;
15841;SDS011;8021;48.022;11.812;2023-05-15T10:09:09;0.10;;;0.10;;
15841;SDS011;8021;48.022;11.812;2023-05-15T10:11:37;0.10;;;0.10;;
15841;SDS011;8021;48.022;11.812;2023-05-15T10:14:05;0.10;;;0.10;;
15841;SDS011;8021;48.022;11.812;2023-05-15T10:16:33;0.10;;;0.10;;
15841;SDS011;8021;48.022;11.812;2023-05-15T10:19:03;0.10;;;0.10;;
15841;SDS011;8021;48.022;11.812;2023-05-15T10:21:32;0.10;;;0.10;;
15841;SDS011;8021;48.022;11.812;2023-05-15T10:24:01;0.10;;;0.10;;
15841;SDS011;8021;48.022;11.812;2023-05-15T10:26:32;0.10;;;0.10;;
15841;SDS011;8021;48.022;11.812;2023-05-15T10:29:01;0.10;;;0.10;;
15841;SDS011;8021;48.022;11.812;2023-05-15T10:31:30;0.10;;;0.10;;
15841;SDS011;8021;48.022;11.812;2023-05-15T10:33:59;0.10;;;0.10;;
15841;SDS011;8021;48.022;11.812;2023-05-15T10:36:28;0.10;;;0.10;;
15841;SDS011;8021;48.022;11.812;2023-05-15T10:38:56;0.15;;;0.15;;
15841;SDS011;8021;48.022;11.812;2023-05-15T10:41:24;0.10;;;0.10;;
15841;SDS011;8021;48.022;11.812;2023-05-15T10:43:53;0.10;;;0.10;;
15841;SDS011;8021;48.022;11.812;2023-05-15T10:46:21;0.10;;;0.10;;
15841;SDS011;8021;48.022;11.812;2023-05-15T10:48:49;0.10;;;0.10;;
15841;SDS011;8021;48.022;11.812;2023-05-15T10:51:17;0.10;;;0.10;;
15841;SDS011;8021;48.022;11.812;2023-05-15T10:53:46;0.10;;;0.10;;
15841;SDS011;8021;48.022;11.812;2023-05-15T10:56:14;0.15;;;0.15;;
15841;SDS011;8021;48.022;11.812;2023-05-15T10:58:43;0.10;;;0.10;;
15841;SDS011;8021;48.022;11.812;2023-05-15T11:01:23;0.10;;;0.10;;
15841;SDS011;8021;48.022;11.812;2023-05-15T11:03:51;0.10;;;0.10;;
15841;SDS011;8021;48.022;11.812;2023-05-15T11:06:30;0.10;;;0.10;;
15841;SDS011;8021;48.022;11.812;2023-05-15T11:11:53;0.10;;;0.10;;
15841;SDS011;8021;48.022;11.812;2023-05-15T11:14:23;0.10;;;0.10;;
15841;SDS011;8021;48.022;11.812;2023-05-15T11:17:00;0.10;;;0.10;;
15841;SDS011;8021;48.022;11.812;2023-05-15T11:19:33;0.10;;;0.10;;
15841;SDS011;8021;48.022;11.812;2023-05-15T11:22:02;0.10;;;0.10;;
15841;SDS011;8021;48.022;11.812;2023-05-15T11:24:48;0.20;;;0.20;;
15841;SDS011;8021;48.022;11.812;2023-05-15T11:27:18;0.10;;;0.10;;
15841;SDS011;8021;48.022;11.812;2023-05-15T11:32:41;0.10;;;0.10;;
15841;SDS011;8021;48.022;11.812;2023-05-15T11:35:09;0.20;;;0.10;;
15841;SDS011;8021;48.022;11.812;2023-05-15T11:37:37;0.20;;;0.17;;
15841;SDS011;8021;48.022;11.812;2023-05-15T11:40:08;0.30;;;0.20;;
15841;SDS011;8021;48.022;11.812;2023-05-15T11:42:40;0.20;;;0.20;;
15841;SDS011;8021;48.022;11.812;2023-05-15T11:45:08;0.30;;;0.20;;
15841;SDS011;8021;48.022;11.812;2023-05-15T11:47:36;0.30;;;0.20;;
15841;SDS011;8021;48.022;11.812;2023-05-15T11:50:04;0.20;;;0.20;;
15841;SDS011;8021;48.022;11.812;2023-05-15T11:52:32;0.20;;;0.20;;
15841;SDS011;8021;48.022;11.812;2023-05-15T11:54:59;0.20;;;0.20;;
15841;SDS011;8021;48.022;11.812;2023-05-15T11:57:27;0.30;;;0.20;;
15841;SDS011;8021;48.022;11.812;2023-05-15T11:59:56;0.30;;;0.20;;
15841;SDS011;8021;48.022;11.812;2023-05-15T12:02:24;0.30;;;0.20;;
15841;SDS011;8021;48.022;11.812;2023-05-15T12:04:53;0.20;;;0.20;;
15841;SDS011;8021;48.022;11.812;2023-05-15T12:07:21;0.30;;;0.20;;
15841;SDS011;8021;48.022;11.812;2023-05-15T12:09:49;0.20;;;0.20;;
15841;SDS011;8021;48.022;11.812;2023-05-15T12:12:17;0.20;;;0.20;;
15841;SDS011;8021;48.022;11.812;2023-05-15T12:14:45;0.30;;;0.20;;
15841;SDS011;8021;48.022;11.812;2023-05-15T12:17:14;0.20;;;0.10;;
15841;SDS011;8021;48.022;11.812;2023-05-15T12:19:42;0.20;;;0.20;;
15841;SDS011;8021;48.022;11.812;2023-05-15T12:22:10;0.30;;;0.20;;
15841;SDS011;8021;48.022;11.812;2023-05-15T12:24:37;0.20;;;0.20;;
15841;SDS011;8021;48.022;11.812;2023-05-15T12:27:06;0.30;;;0.30;;
15841;SDS011;8021;48.022;11.812;2023-05-15T12:29:34;0.20;;;0.20;;
15841;SDS011;8021;48.022;11.812;2023-05-15T12:32:02;0.20;;;0.10;;
15841;SDS011;8021;48.022;11.812;2023-05-15T12:34:31;0.30;;;0.20;;
15841;SDS011;8021;48.022;11.812;2023-05-15T12:36:59;0.20;;;0.20;;
15841;SDS011;8021;48.022;11.812;2023-05-15T12:39:26;0.20;;;0.20;;
15841;SDS011;8021;48.022;11.812;2023-05-15T12:41:56;0.20;;;0.20;;
15841;SDS011;8021;48.022;11.812;2023-05-15T12:44:24;0.20;;;0.20;;
15841;SDS011;8021;48.022;11.812;2023-05-15T12:46:52;0.20;;;0.20;;
15841;SDS011;8021;48.022;11.812;2023-05-15T12:49:20;0.20;;;0.20;;
15841;SDS011;8021;48.022;11.812;2023-05-15T12:51:49;0.20;;;0.20;;
15841;SDS011;8021;48.022;11.812;2023-05-15T12:54:16;0.20;;;0.20;;
15841;SDS011;8021;48.022;11.812;2023-05-15T12:56:45;0.20;;;0.10;;
15841;SDS011;8021;48.022;11.812;2023-05-15T12:59:12;0.20;;;0.20;;
15841;SDS011;8021;48.022;11.812;2023-05-15T13:01:40;0.20;;;0.20;;
15841;SDS011;8021;48.022;11.812;2023-05-15T13:04:08;0.20;;;0.10;;
15841;SDS011;8021;48.022;11.812;2023-05-15T13:06:39;0.20;;;0.20;;
15841;SDS011;8021;48.022;11.812;2023-05-15T13:09:14;0.20;;;0.13;;
15841;SDS011;8021;48.022;11.812;2023-05-15T13:11:47;0.20;;;0.20;;
15841;SDS011;8021;48.022;11.812;2023-05-15T13:14:15;0.20;;;0.20;;
15841;SDS011;8021;48.022;11.812;2023-05-15T13:16:43;0.20;;;0.20;;
15841;SDS011;8021;48.022;11.812;2023-05-15T13:19:12;0.20;;;0.20;;
15841;SDS011;8021;48.022;11.812;2023-05-15T13:21:39;0.20;;;0.10;;
15841;SDS011;8021;48.022;11.812;2023-05-15T13:24:07;0.20;;;0.20;;
15841;SDS011;8021;48.022;11.812;2023-05-15T13:26:37;0.20;;;0.20;;
15841;SDS011;8021;48.022;11.812;2023-05-15T13:29:04;0.20;;;0.20;;
15841;SDS011;8021;48.022;11.812;2023-05-15T13:31:32;0.20;;;0.20;;
15841;SDS011;8021;48.022;11.812;2023-05-15T13:33:59;0.30;;;0.30;;
15841;SDS011;8021;48.022;11.812;2023-05-15T13:36:27;0.20;;;0.20;;
15841;SDS011;8021;48.022;11.812;2023-05-15T13:38:54;0.20;;;0.20;;
15841;SDS011;8021;48.022;11.812;2023-05-15T13:41:22;0.30;;;0.20;;
15841;SDS011;8021;48.022;11.812;2023-05-15T13:43:50;0.30;;;0.20;;
15841;SDS011;8021;48.022;11.812;2023-05-15T13:46:18;0.25;;;0.20;;
15841;SDS011;8021;48.022;11.812;2023-05-15T13:48:45;0.20;;;0.20;;
15841;SDS011;8021;48.022;11.812;2023-05-15T13:51:13;0.20;;;0.20;;
15841;SDS011;8021;48.022;11.812;2023-05-15T13:53:40;0.30;;;0.20;;
15841;SDS011;8021;48.022;11.812;2023-05-15T13:56:08;0.20;;;0.20;;
15841;SDS011;8021;48.022;11.812;2023-05-15T13:58:35;0.20;;;0.20;;
15841;SDS011;8021;48.022;11.812;2023-05-15T14:01:05;0.20;;;0.20;;
15841;SDS011;8021;48.022;11.812;2023-05-15T14:03:33;0.20;;;0.20;;
15841;SDS011;8021;48.022;11.812;2023-05-15T14:06:01;0.20;;;0.20;;
15841;SDS011;8021;48.022;11.812;2023-05-15T14:08:28;0.30;;;0.20;;
15841;SDS011;8021;48.022;11.812;2023-05-15T14:10:55;0.20;;;0.20;;
15841;SDS011;8021;48.022;11.812;2023-05-15T14:13:23;0.30;;;0.20;;
15841;SDS011;8021;48.022;11.812;2023-05-15T14:15:50;0.20;;;0.20;;
15841;SDS011;8021;48.022;11.812;2023-05-15T14:18:20;0.22;;;0.20;;
15841;SDS011;8021;48.022;11.812;2023-05-15T14:20:47;0.20;;;0.20;;
15841;SDS011;8021;48.022;11.812;2023-05-15T14:23:15;0.20;;;0.20;;
15841;SDS011;8021;48.022;11.812;2023-05-15T14:25:42;0.30;;;0.20;;
15841;SDS011;8021;48.022;11.812;2023-05-15T14:28:10;0.20;;;0.20;;
15841;SDS011;8021;48.022;11.812;2023-05-15T14:30:38;0.20;;;0.20;;
15841;SDS011;8021;48.022;11.812;2023-05-15T14:33:05;0.20;;;0.20;;
15841;SDS011;8021;48.022;11.812;2023-05-15T14:35:34;0.30;;;0.20;;
15841;SDS011;8021;48.022;11.812;2023-05-15T14:38:02;0.20;;;0.20;;
15841;SDS011;8021;48.022;11.812;2023-05-15T14:40:30;0.20;;;0.20;;
15841;SDS011;8021;48.022;11.812;2023-05-15T14:42:58;0.20;;;0.10;;
15841;SDS011;8021;48.022;11.812;2023-05-15T14:45:25;0.20;;;0.10;;
15841;SDS011;8021;48.022;11.812;2023-05-15T14:47:53;0.20;;;0.20;;
15841;SDS011;8021;48.022;11.812;2023-05-15T14:50:20;0.20;;;0.20;;
15841;SDS011;8021;48.022;11.812;2023-05-15T14:52:49;0.20;;;0.20;;
15841;SDS011;8021;48.022;11.812;2023-05-15T14:55:17;0.20;;;0.20;;
15841;SDS011;8021;48.022;11.812;2023-05-15T14:57:47;0.20;;;0.20;;
15841;SDS011;8021;48.022;11.812;2023-05-15T15:00:15;0.20;;;0.20;;
15841;SDS011;8021;48.022;11.812;2023-05-15T15:02:43;0.20;;;0.20;;
15841;SDS011;8021;48.022;11.812;2023-05-15T15:05:11;0.20;;;0.20;;
15841;SDS011;8021;48.022;11.812;2023-05-15T15:10:28;0.30;;;0.20;;